createdAt,value
2022-11-10T00:01:07.473Z,99498.06
2022-11-10T00:03:35.546Z,99496.38
2022-11-10T00:06:06.527Z,99503.75
2022-11-10T00:08:32.960Z,99498.25
2022-11-10T00:11:06.262Z,99508.53
2022-11-10T00:13:35.517Z,99514.31
2022-11-10T00:16:23.496Z,99524.44
2022-11-10T00:18:50.545Z,99529.69
2022-11-10T00:21:18.128Z,99526.44
2022-11-10T00:23:47.464Z,99528.88
2022-11-10T00:26:18.032Z,99530.56
2022-11-10T00:28:44.955Z,99537.88
2022-11-10T00:31:12.522Z,99537.88
2022-11-10T00:33:40.735Z,99550.50
2022-11-10T00:36:07.918Z,99545.41
2022-11-10T00:38:34.514Z,99548.53
2022-11-10T00:41:01.882Z,99549.50
2022-11-10T00:43:29.693Z,99554.44
2022-11-10T00:45:56.982Z,99556.56
2022-11-10T00:48:23.444Z,99561.09
2022-11-10T00:50:49.929Z,99566.44
2022-11-10T00:53:18.835Z,99568.72
2022-11-10T00:55:45.402Z,99564.91
2022-11-10T00:58:11.903Z,99564.19
2022-11-10T01:00:38.281Z,99560.53
2022-11-10T01:03:04.772Z,99560.22
2022-11-10T01:05:31.549Z,99567.28
2022-11-10T01:07:59.599Z,99566.16
2022-11-10T01:10:26.836Z,99567.50
2022-11-10T01:12:54.051Z,99570.06
2022-11-10T01:15:26.131Z,99577.88
2022-11-10T01:17:55.752Z,99587.84
2022-11-10T01:20:24.368Z,99589.78
2022-11-10T01:22:50.838Z,99598.56
2022-11-10T01:25:17.310Z,99590.38
2022-11-10T01:27:43.758Z,99603.09
2022-11-10T01:30:10.684Z,99602.25
2022-11-10T01:32:37.040Z,99601.97
2022-11-10T01:35:03.925Z,99607.72
2022-11-10T01:37:30.731Z,99608.84
2022-11-10T01:39:57.183Z,99601.34
2022-11-10T01:42:38.181Z,99612.31
2022-11-10T01:45:22.992Z,99608.50
2022-11-10T01:47:59.630Z,99610.47
2022-11-10T01:50:30.108Z,99612.63
2022-11-10T01:52:59.989Z,99608.94
2022-11-10T01:55:27.322Z,99609.25
2022-11-10T01:57:54.879Z,99607.69
2022-11-10T02:00:22.477Z,99604.72
2022-11-10T02:03:03.545Z,99613.59
2022-11-10T02:05:30.711Z,99614.69
2022-11-10T02:07:57.318Z,99615.31
2022-11-10T02:10:23.819Z,99611.50
2022-11-10T02:12:50.581Z,99619.41
2022-11-10T02:15:18.692Z,99615.31
2022-11-10T02:17:49.020Z,99617.38
2022-11-10T02:20:20.288Z,99618.25
2022-11-10T02:22:47.105Z,99622.47
2022-11-10T02:25:19.289Z,99622.03
2022-11-10T02:27:45.859Z,99630.13
2022-11-10T02:30:12.891Z,99626.47
2022-11-10T02:32:39.435Z,99635.88
2022-11-10T02:35:06.376Z,99636.00
2022-11-10T02:37:33.134Z,99637.72
2022-11-10T02:39:59.551Z,99638.16
2022-11-10T02:42:25.988Z,99652.94
2022-11-10T02:44:52.602Z,99662.94
2022-11-10T02:47:19.008Z,99664.56
2022-11-10T02:49:45.621Z,99670.25
2022-11-10T02:52:12.263Z,99670.06
2022-11-10T02:54:38.616Z,99677.00
2022-11-10T02:57:05.125Z,99685.03
2022-11-10T02:59:31.524Z,99680.25
2022-11-10T03:01:57.987Z,99686.47
2022-11-10T03:04:24.350Z,99681.44
2022-11-10T03:06:50.931Z,99673.34
2022-11-10T03:09:17.334Z,99680.94
2022-11-10T03:11:43.824Z,99683.41
2022-11-10T03:14:10.188Z,99696.03
2022-11-10T03:16:36.716Z,99682.63
2022-11-10T03:19:03.219Z,99688.50
2022-11-10T03:21:29.807Z,99687.94
2022-11-10T03:23:56.221Z,99682.72
2022-11-10T03:26:22.876Z,99690.19
2022-11-10T03:28:49.263Z,99693.94
2022-11-10T03:31:15.794Z,99695.56
2022-11-10T03:33:42.412Z,99704.63
2022-11-10T03:36:09.053Z,99705.22
2022-11-10T03:38:35.754Z,99697.47
2022-11-10T03:41:19.677Z,99709.16
2022-11-10T03:43:47.849Z,99718.91
2022-11-10T03:46:14.265Z,99734.25
2022-11-10T03:48:40.888Z,99742.28
2022-11-10T03:51:07.608Z,99740.09
2022-11-10T03:53:34.030Z,99740.13
2022-11-10T03:56:04.974Z,99729.63
2022-11-10T03:58:31.697Z,99717.69
2022-11-10T04:00:58.826Z,99702.34
2022-11-10T04:03:25.685Z,99722.66
2022-11-10T04:06:11.088Z,99731.94
2022-11-10T04:08:56.114Z,99744.00
2022-11-10T04:11:41.303Z,99737.88
2022-11-10T04:14:26.246Z,99732.81
2022-11-10T04:16:53.002Z,99741.31
2022-11-10T04:19:19.584Z,99743.88
2022-11-10T04:21:45.968Z,99754.22
2022-11-10T04:24:12.563Z,99756.66
2022-11-10T04:26:40.467Z,99759.56
2022-11-10T04:29:11.221Z,99774.31
2022-11-10T04:31:39.865Z,99782.81
2022-11-10T04:34:08.395Z,99788.16
2022-11-10T04:36:36.644Z,99799.97
2022-11-10T04:39:04.798Z,99799.97
2022-11-10T04:41:31.701Z,99792.91
2022-11-10T04:43:59.151Z,99792.66
2022-11-10T04:46:36.891Z,99793.16
2022-11-10T04:49:04.689Z,99804.72
2022-11-10T04:51:36.812Z,99813.81
2022-11-10T04:54:04.299Z,99817.72
2022-11-10T04:56:31.049Z,99823.09
2022-11-10T04:58:57.657Z,99819.94
2022-11-10T05:01:26.902Z,99821.63
2022-11-10T05:03:54.608Z,99828.31
2022-11-10T05:06:21.917Z,99833.06
2022-11-10T05:08:48.703Z,99836.09
2022-11-10T05:11:15.231Z,99841.22
2022-11-10T05:13:42.726Z,99836.22
2022-11-10T05:16:09.894Z,99835.72
2022-11-10T05:18:36.548Z,99854.06
2022-11-10T05:21:03.339Z,99848.97
2022-11-10T05:23:38.681Z,99854.19
2022-11-10T05:26:06.372Z,99861.44
2022-11-10T05:28:33.774Z,99872.88
2022-11-10T05:31:00.167Z,99872.88
2022-11-10T05:33:26.721Z,99879.78
2022-11-10T05:35:54.359Z,99872.09
2022-11-10T05:38:20.829Z,99882.78
2022-11-10T05:40:47.413Z,99884.50
2022-11-10T05:43:14.310Z,99891.81
2022-11-10T05:45:40.838Z,99895.88
2022-11-10T05:48:07.463Z,99894.19
2022-11-10T05:50:33.844Z,99891.84
2022-11-10T05:53:00.308Z,99885.28
2022-11-10T05:55:28.753Z,99883.38
2022-11-10T05:57:57.288Z,99888.84
2022-11-10T06:00:28.236Z,99891.22
2022-11-10T06:03:03.682Z,99907.50
2022-11-10T06:05:33.007Z,99913.84
2022-11-10T06:07:59.786Z,99918.66
2022-11-10T06:10:26.598Z,99926.78
2022-11-10T06:12:53.429Z,99923.59
2022-11-10T06:15:20.096Z,99934.31
2022-11-10T06:17:46.697Z,99938.78
2022-11-10T06:20:14.989Z,99944.63
2022-11-10T06:22:41.648Z,99954.38
2022-11-10T06:25:10.218Z,99951.50
2022-11-10T06:27:37.180Z,99948.72
2022-11-10T06:30:04.548Z,99953.34
2022-11-10T06:32:32.885Z,99968.94
2022-11-10T06:35:00.634Z,99966.28
2022-11-10T06:37:27.453Z,99971.63
2022-11-10T06:39:53.948Z,99972.38
2022-11-10T06:42:20.385Z,99976.97
2022-11-10T06:44:46.895Z,99983.47
2022-11-10T06:47:13.266Z,99986.03
2022-11-10T06:49:39.831Z,99994.81
2022-11-10T06:52:06.343Z,99999.63
2022-11-10T06:54:32.745Z,100011.09
2022-11-10T06:56:59.278Z,100001.25
2022-11-10T06:59:25.693Z,100010.88
2022-11-10T07:01:52.145Z,100011.31
2022-11-10T07:04:20.085Z,100022.63
2022-11-10T07:06:47.968Z,100028.06
2022-11-10T07:09:14.892Z,100034.47
2022-11-10T07:11:41.747Z,100023.06
2022-11-10T07:14:08.180Z,100025.72
2022-11-10T07:16:34.687Z,100044.44
2022-11-10T07:19:01.111Z,100056.38
2022-11-10T07:21:27.612Z,100052.34
2022-11-10T07:23:53.994Z,100061.97
2022-11-10T07:26:20.544Z,100059.94
2022-11-10T07:28:46.930Z,100066.44
2022-11-10T07:31:13.772Z,100063.97
2022-11-10T07:33:40.179Z,100074.03
2022-11-10T07:36:07.263Z,100075.09
2022-11-10T07:38:33.683Z,100080.34
2022-11-10T07:41:00.100Z,100088.03
2022-11-10T07:43:26.525Z,100089.25
2022-11-10T07:45:53.524Z,100084.84
2022-11-10T07:48:20.207Z,100092.44
2022-11-10T07:50:46.731Z,100093.06
2022-11-10T07:53:19.852Z,100102.34
2022-11-10T07:55:46.773Z,100102.34
2022-11-10T07:58:15.794Z,100102.16
2022-11-10T08:00:43.041Z,100101.06
2022-11-10T08:03:20.844Z,100112.38
2022-11-10T08:05:47.957Z,100109.59
2022-11-10T08:08:14.567Z,100112.06
2022-11-10T08:10:41.759Z,100121.66
2022-11-10T08:13:10.314Z,100123.91
2022-11-10T08:15:37.276Z,100125.75
2022-11-10T08:18:07.975Z,100129.06
2022-11-10T08:20:35.086Z,100129.56
2022-11-10T08:23:04.728Z,100122.06
2022-11-10T08:25:35.361Z,100126.13
2022-11-10T08:28:06.749Z,100142.31
2022-11-10T08:30:34.778Z,100148.19
2022-11-10T08:33:02.877Z,100152.69
2022-11-10T08:35:31.085Z,100159.41
2022-11-10T08:37:57.728Z,100151.78
2022-11-10T08:40:27.566Z,100155.72
2022-11-10T08:43:02.170Z,100153.78
2022-11-10T08:45:29.269Z,100153.44
2022-11-10T08:47:59.989Z,100153.84
2022-11-10T08:50:27.672Z,100177.50
2022-11-10T08:52:54.467Z,100163.88
2022-11-10T08:55:21.574Z,100159.19
2022-11-10T08:57:48.509Z,100171.28
2022-11-10T09:00:16.738Z,100178.97
2022-11-10T09:02:43.132Z,100188.38
2022-11-10T09:05:10.227Z,100191.44
2022-11-10T09:07:46.822Z,100191.50
2022-11-10T09:10:14.212Z,100192.97
2022-11-10T09:12:42.337Z,100195.81
2022-11-10T09:15:10.643Z,100199.59
2022-11-10T09:17:40.938Z,100210.09
2022-11-10T09:20:09.433Z,100205.13
2022-11-10T09:22:36.439Z,100209.16
2022-11-10T09:25:03.908Z,100204.16
2022-11-10T09:27:30.727Z,100195.75
2022-11-10T09:29:57.348Z,100200.19
2022-11-10T09:32:23.924Z,100210.03
2022-11-10T09:34:53.076Z,100219.69
2022-11-10T09:37:19.783Z,100217.00
2022-11-10T09:39:46.310Z,100225.06
2022-11-10T09:42:34.052Z,100229.50
2022-11-10T09:45:27.032Z,100219.13
2022-11-10T09:48:29.611Z,100214.25
2022-11-10T09:51:03.055Z,100218.84
2022-11-10T09:53:38.305Z,100210.56
2022-11-10T09:56:06.956Z,100213.97
2022-11-10T09:58:43.393Z,100209.78
2022-11-10T10:01:36.121Z,100209.16
2022-11-10T10:04:31.989Z,100220.13
2022-11-10T10:07:31.586Z,100211.94
2022-11-10T10:10:17.745Z,100215.69
2022-11-10T10:12:55.832Z,100219.09
2022-11-10T10:15:49.411Z,100219.78
2022-11-10T10:18:29.755Z,100231.13
2022-11-10T10:21:15.529Z,100228.13
2022-11-10T10:26:41.072Z,100229.34
2022-11-10T10:29:44.461Z,100224.44
2022-11-10T10:32:13.263Z,100227.16
2022-11-10T10:34:41.172Z,100230.75
2022-11-10T10:37:26.832Z,100229.03
2022-11-10T10:39:55.417Z,100224.34
2022-11-10T10:42:36.806Z,100229.47
2022-11-10T10:45:23.073Z,100231.78
2022-11-10T10:47:52.099Z,100237.41
2022-11-10T10:50:34.886Z,100241.41
2022-11-10T10:53:19.165Z,100234.88
2022-11-10T10:56:05.882Z,100235.78
2022-11-10T10:58:49.834Z,100237.25
2022-11-10T11:01:16.208Z,100241.09
2022-11-10T11:03:51.487Z,100237.66
2022-11-10T11:06:21.384Z,100237.31
2022-11-10T11:09:29.335Z,100241.19
2022-11-10T11:12:01.822Z,100226.31
2022-11-10T11:14:30.377Z,100234.59
2022-11-10T11:17:21.116Z,100228.75
2022-11-10T11:19:58.541Z,100229.66
2022-11-10T11:23:12.443Z,100238.56
2022-11-10T11:25:43.561Z,100242.34
2022-11-10T11:28:28.483Z,100240.22
2022-11-10T11:31:09.903Z,100238.25
2022-11-10T11:34:07.113Z,100248.31
2022-11-10T11:37:11.247Z,100240.28
2022-11-10T11:39:57.257Z,100236.50
2022-11-10T11:42:26.646Z,100233.81
2022-11-10T11:45:15.424Z,100245.03
2022-11-10T11:47:57.701Z,100244.50
2022-11-10T11:50:50.300Z,100255.13
2022-11-10T11:53:38.057Z,100262.06
2022-11-10T11:56:17.777Z,100272.72
2022-11-10T11:59:05.880Z,100275.16
2022-11-10T12:01:32.420Z,100273.44
2022-11-10T12:04:19.116Z,100275.28
2022-11-10T12:07:11.231Z,100274.09
2022-11-10T12:09:43.914Z,100278.19
2022-11-10T12:12:36.644Z,100285.44
2022-11-10T12:15:15.395Z,100281.91
2022-11-10T12:18:12.806Z,100289.16
2022-11-10T12:20:57.516Z,100286.63
2022-11-10T12:23:39.124Z,100285.09
2022-11-10T12:26:29.784Z,100290.38
2022-11-10T12:29:09.346Z,100280.00
2022-11-10T12:31:38.162Z,100282.31
2022-11-10T12:34:22.348Z,100295.78
2022-11-10T12:36:50.919Z,100288.56
2022-11-10T12:39:25.897Z,100290.72
2022-11-10T12:42:00.212Z,100289.13
2022-11-10T12:44:54.080Z,100304.47
2022-11-10T12:47:25.938Z,100297.63
2022-11-10T12:50:15.440Z,100292.94
2022-11-10T12:52:55.052Z,100301.38
2022-11-10T12:55:35.104Z,100298.00
2022-11-10T12:58:05.706Z,100295.72
2022-11-10T13:00:43.571Z,100290.88
2022-11-10T13:03:27.196Z,100280.38
2022-11-10T13:06:05.730Z,100284.06
2022-11-10T13:08:41.162Z,100282.09
2022-11-10T13:11:13.626Z,100282.34
2022-11-10T13:14:00.197Z,100281.53
2022-11-10T13:16:40.281Z,100283.50
2022-11-10T13:19:11.705Z,100285.44
2022-11-10T13:22:01.041Z,100291.47
2022-11-10T13:24:28.873Z,100298.53
2022-11-10T13:27:11.239Z,100296.56
2022-11-10T13:29:43.768Z,100298.84
2022-11-10T13:32:13.509Z,100298.28
2022-11-10T13:34:41.853Z,100302.97
2022-11-10T13:37:53.716Z,100300.25
2022-11-10T13:40:23.348Z,100302.50
2022-11-10T13:42:59.124Z,100307.47
2022-11-10T13:45:34.393Z,100315.44
2022-11-10T13:48:12.268Z,100316.31
2022-11-10T13:51:07.052Z,100307.34
2022-11-10T13:53:33.412Z,100313.88
2022-11-10T13:56:32.079Z,100311.31
2022-11-10T13:58:59.293Z,100313.53
2022-11-10T14:01:30.093Z,100314.81
2022-11-10T14:04:00.386Z,100309.25
2022-11-10T14:06:45.528Z,100304.00
2022-11-10T14:09:27.140Z,100319.03
2022-11-10T14:11:59.558Z,100322.13
2022-11-10T14:14:33.511Z,100310.06
2022-11-10T14:17:00.955Z,100312.03
2022-11-10T14:19:43.270Z,100313.28
2022-11-10T14:22:25.753Z,100324.31
2022-11-10T14:25:19.462Z,100323.03
2022-11-10T14:27:46.015Z,100327.72
2022-11-10T14:30:21.475Z,100325.53
2022-11-10T14:33:00.818Z,100335.09
2022-11-10T14:35:30.312Z,100331.94
2022-11-10T14:38:02.374Z,100334.06
2022-11-10T14:40:29.684Z,100331.75
2022-11-10T14:42:57.075Z,100342.91
2022-11-10T14:45:26.296Z,100336.22
2022-11-10T14:47:59.067Z,100341.97
2022-11-10T14:50:34.547Z,100338.06
2022-11-10T14:53:21.571Z,100340.59
2022-11-10T14:55:54.737Z,100345.38
2022-11-10T14:58:28.157Z,100332.81
2022-11-10T15:00:54.928Z,100329.66
2022-11-10T15:03:36.451Z,100328.94
2022-11-10T15:06:05.370Z,100332.16
2022-11-10T15:08:32.474Z,100332.06
2022-11-10T15:10:59.078Z,100341.75
2022-11-10T15:13:28.748Z,100341.19
2022-11-10T15:16:23.013Z,100344.38
2022-11-10T15:18:51.013Z,100336.22
2022-11-10T15:21:19.814Z,100346.50
2022-11-10T15:23:52.402Z,100349.97
2022-11-10T15:26:25.109Z,100352.75
2022-11-10T15:28:52.860Z,100350.47
2022-11-10T15:31:30.718Z,100353.16
2022-11-10T15:33:59.789Z,100356.19
2022-11-10T15:36:35.579Z,100357.53
2022-11-10T15:39:23.267Z,100361.16
2022-11-10T15:41:56.792Z,100375.09
2022-11-10T15:44:25.886Z,100369.28
2022-11-10T15:46:54.876Z,100362.25
2022-11-10T15:49:32.466Z,100369.03
2022-11-10T15:52:05.252Z,100359.13
2022-11-10T15:54:36.100Z,100355.59
2022-11-10T15:57:02.548Z,100364.63
2022-11-10T15:59:29.126Z,100363.88
2022-11-10T16:01:55.828Z,100373.63
2022-11-10T16:04:22.271Z,100376.00
2022-11-10T16:06:49.037Z,100390.53
2022-11-10T16:09:15.534Z,100399.53
2022-11-10T16:11:44.458Z,100400.91
2022-11-10T16:14:15.580Z,100410.72
2022-11-10T16:16:42.473Z,100397.31
2022-11-10T16:19:11.294Z,100413.88
2022-11-10T16:21:37.824Z,100412.72
2022-11-10T16:24:04.604Z,100430.72
2022-11-10T16:26:33.128Z,100426.78
2022-11-10T16:28:59.693Z,100432.25
2022-11-10T16:31:27.004Z,100441.94
2022-11-10T16:33:53.531Z,100435.13
2022-11-10T16:36:23.538Z,100440.06
2022-11-10T16:38:50.148Z,100438.34
2022-11-10T16:41:16.775Z,100440.72
2022-11-10T16:43:43.216Z,100438.91
2022-11-10T16:46:22.497Z,100429.53
2022-11-10T16:48:51.068Z,100427.22
2022-11-10T16:51:18.177Z,100431.38
2022-11-10T16:53:45.417Z,100439.84
2022-11-10T16:56:15.979Z,100437.00
2022-11-10T16:58:42.881Z,100440.31
2022-11-10T17:01:22.387Z,100456.81
2022-11-10T17:03:52.035Z,100451.44
2022-11-10T17:06:20.841Z,100451.16
2022-11-10T17:08:52.942Z,100461.44
2022-11-10T17:11:19.409Z,100475.91
2022-11-10T17:13:46.001Z,100492.84
2022-11-10T17:16:12.329Z,100488.44
2022-11-10T17:18:38.944Z,100502.19
2022-11-10T17:21:08.439Z,100512.34
2022-11-10T17:23:35.991Z,100510.53
2022-11-10T17:26:02.550Z,100517.47
2022-11-10T17:28:29.116Z,100517.69
2022-11-10T17:30:56.201Z,100523.69
2022-11-10T17:33:22.998Z,100520.91
2022-11-10T17:35:52.439Z,100533.75
2022-11-10T17:38:28.264Z,100525.19
2022-11-10T17:40:55.034Z,100527.75
2022-11-10T17:43:23.077Z,100522.94
2022-11-10T17:45:50.993Z,100524.44
2022-11-10T17:48:17.535Z,100526.56
2022-11-10T17:50:46.742Z,100524.63
2022-11-10T17:53:17.599Z,100523.69
2022-11-10T17:55:44.218Z,100528.28
2022-11-10T17:58:11.023Z,100525.72
2022-11-10T18:00:37.632Z,100524.09
2022-11-10T18:03:08.426Z,100517.44
2022-11-10T18:05:35.719Z,100527.75
2022-11-10T18:08:02.120Z,100527.22
2022-11-10T18:10:28.576Z,100522.81
2022-11-10T18:12:54.955Z,100529.97
2022-11-10T18:15:21.595Z,100526.41
2022-11-10T18:17:48.043Z,100523.97
2022-11-10T18:20:14.647Z,100533.72
2022-11-10T18:22:41.161Z,100540.34
2022-11-10T18:25:08.993Z,100543.88
2022-11-10T18:27:36.318Z,100547.72
2022-11-10T18:30:04.477Z,100552.22
2022-11-10T18:32:31.133Z,100559.56
2022-11-10T18:34:57.493Z,100559.91
2022-11-10T18:37:23.992Z,100559.16
2022-11-10T18:39:50.433Z,100569.06
2022-11-10T18:42:16.946Z,100573.09
2022-11-10T18:44:43.420Z,100566.50
2022-11-10T18:47:12.387Z,100561.28
2022-11-10T18:49:41.581Z,100556.22
2022-11-10T18:52:10.794Z,100561.94
2022-11-10T18:54:37.235Z,100565.94
2022-11-10T18:57:03.695Z,100565.94
2022-11-10T18:59:30.233Z,100574.97
2022-11-10T19:01:56.795Z,100576.38
2022-11-10T19:04:23.366Z,100579.91
2022-11-10T19:06:49.837Z,100585.34
2022-11-10T19:09:16.323Z,100575.31
2022-11-10T19:11:43.738Z,100572.63
2022-11-10T19:14:10.312Z,100571.19
2022-11-10T19:16:36.783Z,100584.69
2022-11-10T19:19:03.453Z,100593.06
2022-11-10T19:21:30.160Z,100584.00
2022-11-10T19:23:58.000Z,100572.00
2022-11-10T19:26:26.521Z,100568.38
2022-11-10T19:28:55.504Z,100558.72
2022-11-10T19:31:23.684Z,100563.69
2022-11-10T19:33:53.441Z,100574.50
2022-11-10T19:36:23.141Z,100574.50
2022-11-10T19:38:51.354Z,100576.31
2022-11-10T19:41:21.262Z,100580.59
2022-11-10T19:43:48.207Z,100573.94
2022-11-10T19:46:17.740Z,100574.50
2022-11-10T19:48:44.918Z,100579.84
2022-11-10T19:51:13.537Z,100576.75
2022-11-10T19:53:41.706Z,100583.28
2022-11-10T19:56:15.085Z,100578.03
2022-11-10T19:58:43.037Z,100572.16
2022-11-10T20:01:11.897Z,100576.19
2022-11-10T20:03:39.328Z,100580.78
2022-11-10T20:06:24.044Z,100588.06
2022-11-10T20:08:50.879Z,100597.94
2022-11-10T20:11:21.307Z,100609.22
2022-11-10T20:13:54.214Z,100607.91
2022-11-10T20:16:21.533Z,100601.88
2022-11-10T20:18:48.295Z,100610.41
2022-11-10T20:21:17.641Z,100605.06
2022-11-10T20:23:44.465Z,100607.63
2022-11-10T20:26:13.649Z,100608.03
2022-11-10T20:28:43.382Z,100612.91
2022-11-10T20:31:38.476Z,100609.75
2022-11-10T20:34:04.993Z,100607.75
2022-11-10T20:36:32.203Z,100612.81
2022-11-10T20:39:02.138Z,100616.44
2022-11-10T20:41:32.984Z,100613.00
2022-11-10T20:43:59.530Z,100612.44
2022-11-10T20:46:53.025Z,100621.44
2022-11-10T20:49:13.857Z,100614.06
2022-11-10T20:51:41.919Z,100619.53
2022-11-10T20:54:09.108Z,100611.41
2022-11-10T20:56:35.553Z,100612.16
2022-11-10T20:59:02.234Z,100614.72
2022-11-10T21:01:28.867Z,100606.25
2022-11-10T21:03:55.381Z,100603.16
2022-11-10T21:06:21.839Z,100602.88
2022-11-10T21:08:48.627Z,100603.72
2022-11-10T21:11:35.216Z,100597.59
2022-11-10T21:14:01.945Z,100602.13
2022-11-10T21:16:28.853Z,100606.00
2022-11-10T21:18:56.566Z,100600.84
2022-11-10T21:21:27.913Z,100604.59
2022-11-10T21:23:57.202Z,100600.66
2022-11-10T21:26:24.152Z,100599.06
2022-11-10T21:28:50.591Z,100594.00
2022-11-10T21:31:18.386Z,100592.91
2022-11-10T21:33:45.186Z,100596.16
2022-11-10T21:36:11.775Z,100598.84
2022-11-10T21:38:38.400Z,100608.03
2022-11-10T21:41:04.914Z,100608.03
2022-11-10T21:43:31.766Z,100616.16
2022-11-10T21:46:01.549Z,100610.13
2022-11-10T21:48:27.959Z,100626.38
2022-11-10T21:51:08.806Z,100632.47
2022-11-10T21:53:36.266Z,100623.41
2022-11-10T21:56:06.065Z,100625.13
2022-11-10T21:58:36.498Z,100631.91
2022-11-10T22:01:19.014Z,100630.13
2022-11-10T22:03:45.433Z,100630.78
2022-11-10T22:06:14.262Z,100641.09
2022-11-10T22:08:41.895Z,100641.19
2022-11-10T22:11:34.181Z,100640.34
2022-11-10T22:14:16.005Z,100648.00
2022-11-10T22:17:09.198Z,100650.00
2022-11-10T22:19:36.981Z,100657.34
2022-11-10T22:22:04.349Z,100653.13
2022-11-10T22:24:31.084Z,100650.38
2022-11-10T22:26:59.533Z,100657.81
2022-11-10T22:29:32.023Z,100652.19
2022-11-10T22:32:02.402Z,100648.75
2022-11-10T22:34:29.230Z,100653.63
2022-11-10T22:36:55.806Z,100659.47
2022-11-10T22:39:22.570Z,100665.09
2022-11-10T22:42:08.167Z,100668.59
2022-11-10T22:44:34.470Z,100671.84
2022-11-10T22:47:00.916Z,100675.28
2022-11-10T22:49:27.417Z,100672.44
2022-11-10T22:51:55.236Z,100663.16
2022-11-10T22:54:23.544Z,100666.28
2022-11-10T22:56:50.997Z,100668.50
2022-11-10T22:59:17.984Z,100669.91
2022-11-10T23:01:44.798Z,100678.88
2022-11-10T23:04:11.776Z,100674.31
2022-11-10T23:06:38.529Z,100678.63
2022-11-10T23:09:05.575Z,100671.81
2022-11-10T23:11:33.670Z,100675.34
2022-11-10T23:14:00.453Z,100673.06
2022-11-10T23:16:30.416Z,100672.47
2022-11-10T23:18:57.690Z,100675.44
2022-11-10T23:21:27.358Z,100684.03
2022-11-10T23:23:54.080Z,100682.69
2022-11-10T23:26:26.844Z,100688.41
2022-11-10T23:28:53.503Z,100690.91
2022-11-10T23:31:25.411Z,100704.25
2022-11-10T23:33:54.370Z,100699.00
2022-11-10T23:36:23.162Z,100700.31
2022-11-10T23:38:49.920Z,100701.09
2022-11-10T23:41:19.183Z,100701.66
2022-11-10T23:43:45.847Z,100703.50
2022-11-10T23:46:12.646Z,100707.94
2022-11-10T23:48:40.168Z,100712.19
2022-11-10T23:51:07.915Z,100698.25
2022-11-10T23:53:34.407Z,100701.34
2022-11-10T23:56:03.579Z,100699.13
2022-11-10T23:58:30.509Z,100699.22
